createdAt,value
2023-08-28T00:00:38.662Z,16.30
2023-08-28T00:03:30.424Z,17.40
2023-08-28T00:06:02.194Z,16.60
2023-08-28T00:08:33.952Z,16.00
2023-08-28T00:11:05.891Z,16.00
2023-08-28T00:13:37.747Z,14.60
2023-08-28T00:16:09.667Z,16.10
2023-08-28T00:18:41.620Z,15.90
2023-08-28T00:21:13.476Z,14.90
2023-08-28T00:23:45.292Z,15.20
2023-08-28T00:26:17.359Z,15.60
2023-08-28T00:28:49.308Z,15.40
2023-08-28T00:31:21.401Z,15.30
2023-08-28T00:33:54.162Z,16.00
2023-08-28T00:36:25.979Z,15.40
2023-08-28T00:38:58.193Z,15.00
2023-08-28T00:41:31.718Z,15.10
2023-08-28T00:46:34.692Z,14.30
2023-08-28T00:49:06.987Z,14.30
2023-08-28T00:51:39.531Z,14.80
2023-08-28T00:54:11.520Z,15.50
2023-08-28T00:56:44.266Z,15.50
2023-08-28T00:59:19.613Z,15.20
2023-08-28T01:01:51.971Z,16.00
2023-08-28T01:04:25.174Z,14.40
2023-08-28T01:07:03.769Z,15.80
2023-08-28T01:09:45.480Z,15.90
2023-08-28T01:12:26.358Z,14.30
2023-08-28T01:15:04.512Z,14.80
2023-08-28T01:18:03.522Z,13.40
2023-08-28T01:20:37.847Z,14.50
2023-08-28T01:23:20.431Z,14.70
2023-08-28T01:25:54.420Z,14.90
2023-08-28T01:28:27.430Z,15.20
2023-08-28T01:31:00.037Z,15.00
2023-08-28T01:36:09.729Z,14.50
2023-08-28T01:38:48.054Z,14.70
2023-08-28T01:41:23.094Z,15.60
2023-08-28T01:43:59.636Z,15.40
2023-08-28T01:46:34.857Z,15.00
2023-08-28T01:49:08.386Z,14.90
2023-08-28T01:51:40.369Z,15.50
2023-08-28T01:54:12.351Z,14.60
2023-08-28T01:56:44.726Z,14.70
2023-08-28T01:59:16.652Z,14.50
2023-08-28T02:01:48.465Z,14.90
2023-08-28T02:04:20.926Z,14.90
2023-08-28T02:06:52.865Z,14.70
2023-08-28T02:09:24.867Z,14.00
2023-08-28T02:11:57.040Z,14.00
2023-08-28T02:14:28.889Z,14.50
2023-08-28T02:17:03.469Z,15.10
2023-08-28T02:19:35.472Z,16.00
2023-08-28T02:22:07.680Z,13.70
2023-08-28T02:24:39.718Z,15.10
2023-08-28T02:27:11.583Z,13.90
2023-08-28T02:29:43.456Z,13.40
2023-08-28T02:32:15.670Z,13.00
2023-08-28T02:34:47.656Z,13.50
2023-08-28T02:37:19.543Z,13.10
2023-08-28T02:39:51.477Z,13.60
2023-08-28T02:42:23.284Z,13.40
2023-08-28T02:44:55.471Z,13.00
2023-08-28T02:47:27.837Z,13.20
2023-08-28T02:49:59.684Z,13.30
2023-08-28T02:52:31.931Z,14.20
2023-08-28T02:55:03.779Z,12.60
2023-08-28T02:57:38.671Z,13.40
2023-08-28T03:00:36.358Z,13.90
2023-08-28T03:05:40.199Z,12.10
2023-08-28T03:08:12.500Z,12.80
2023-08-28T03:10:44.277Z,12.60
2023-08-28T03:13:16.046Z,13.10
2023-08-28T03:15:47.929Z,14.10
2023-08-28T03:18:20.037Z,13.90
2023-08-28T03:20:52.884Z,14.00
2023-08-28T03:23:24.696Z,13.60
2023-08-28T03:25:56.544Z,13.50
2023-08-28T03:28:28.431Z,13.60
2023-08-28T03:31:00.916Z,12.70
2023-08-28T03:33:33.633Z,12.40
2023-08-28T03:36:07.468Z,14.90
2023-08-28T03:38:40.624Z,13.40
2023-08-28T03:41:12.822Z,13.00
2023-08-28T03:43:44.898Z,12.90
2023-08-28T03:46:16.713Z,13.50
2023-08-28T03:48:48.639Z,13.60
2023-08-28T03:51:20.407Z,13.10
2023-08-28T03:53:52.321Z,13.00
2023-08-28T03:56:25.060Z,13.00
2023-08-28T04:01:27.273Z,12.30
2023-08-28T04:03:59.694Z,12.60
2023-08-28T04:06:31.574Z,13.70
2023-08-28T04:09:03.312Z,12.80
2023-08-28T04:11:36.414Z,12.60
2023-08-28T04:14:08.593Z,11.70
2023-08-28T04:16:40.877Z,12.70
2023-08-28T04:21:43.634Z,13.20
2023-08-28T04:24:15.532Z,13.60
2023-08-28T04:26:47.463Z,13.30
2023-08-28T04:29:19.318Z,13.20
2023-08-28T04:31:51.136Z,12.70
2023-08-28T04:34:23.001Z,12.50
2023-08-28T04:36:54.858Z,13.10
2023-08-28T04:39:26.806Z,13.10
2023-08-28T04:41:59.461Z,12.60
2023-08-28T04:44:31.540Z,12.40
2023-08-28T04:47:03.462Z,12.80
2023-08-28T04:49:35.783Z,13.30
2023-08-28T04:52:09.015Z,13.90
2023-08-28T04:54:41.225Z,13.30
2023-08-28T04:57:13.057Z,12.90
2023-08-28T04:59:44.970Z,13.20
2023-08-28T05:02:17.253Z,14.40
2023-08-28T05:04:49.122Z,13.20
2023-08-28T05:07:20.947Z,12.40
2023-08-28T05:09:52.856Z,12.90
2023-08-28T05:12:24.792Z,13.00
2023-08-28T05:14:57.116Z,13.70
2023-08-28T05:17:29.089Z,13.60
2023-08-28T05:20:01.336Z,13.40
2023-08-28T05:22:33.218Z,12.90
2023-08-28T05:25:05.330Z,12.20
2023-08-28T05:30:36.196Z,12.20
2023-08-28T05:33:08.281Z,11.60
2023-08-28T05:35:40.670Z,12.50
2023-08-28T05:38:13.772Z,12.80
2023-08-28T05:40:46.183Z,11.70
2023-08-28T05:43:18.251Z,12.00
2023-08-28T05:45:51.203Z,12.90
2023-08-28T05:48:23.693Z,12.10
2023-08-28T05:50:56.413Z,11.50
2023-08-28T05:53:30.759Z,12.40
2023-08-28T05:56:03.582Z,11.50
2023-08-28T05:58:35.489Z,11.40
2023-08-28T06:01:07.722Z,11.70
2023-08-28T06:03:40.157Z,11.90
2023-08-28T06:06:12.065Z,11.70
2023-08-28T06:08:44.081Z,7.60
2023-08-28T06:11:16.477Z,11.80
2023-08-28T06:13:48.348Z,11.40
2023-08-28T06:16:20.334Z,12.40
2023-08-28T06:18:54.195Z,11.60
2023-08-28T06:21:26.652Z,11.80
2023-08-28T06:24:02.579Z,11.40
2023-08-28T06:26:35.019Z,11.30
2023-08-28T06:29:08.312Z,11.00
2023-08-28T06:31:40.394Z,10.40
2023-08-28T06:34:12.310Z,11.00
2023-08-28T06:36:45.048Z,10.70
2023-08-28T06:39:16.986Z,11.00
2023-08-28T06:41:49.090Z,10.00
2023-08-28T06:44:21.094Z,6.20
2023-08-28T06:46:53.196Z,9.40
2023-08-28T06:49:25.229Z,8.90
2023-08-28T06:51:57.172Z,9.50
2023-08-28T06:54:41.822Z,9.50
2023-08-28T06:57:21.799Z,8.30
2023-08-28T07:02:24.222Z,7.30
2023-08-28T07:04:56.268Z,8.10
2023-08-28T07:07:28.165Z,8.20
2023-08-28T07:10:00.181Z,8.10
2023-08-28T07:12:32.331Z,7.70
2023-08-28T07:15:39.945Z,6.70
2023-08-28T07:18:11.960Z,7.20
2023-08-28T07:20:43.995Z,7.20
2023-08-28T07:23:15.971Z,6.60
2023-08-28T07:25:48.221Z,5.00
2023-08-28T07:28:20.253Z,6.90
2023-08-28T07:30:52.237Z,6.30
2023-08-28T07:33:24.358Z,6.80
2023-08-28T07:35:56.566Z,6.60
2023-08-28T07:38:28.474Z,5.80
2023-08-28T07:41:00.778Z,5.60
2023-08-28T07:43:32.837Z,4.60
2023-08-28T07:46:05.717Z,5.20
2023-08-28T07:51:08.363Z,4.30
2023-08-28T07:53:41.097Z,4.90
2023-08-28T07:56:12.966Z,4.30
2023-08-28T07:58:45.080Z,5.20
2023-08-28T08:01:16.999Z,4.60
2023-08-28T08:03:49.165Z,3.70
2023-08-28T08:06:21.058Z,4.10
2023-08-28T08:08:52.988Z,4.40
2023-08-28T08:11:25.116Z,3.80
2023-08-28T08:13:57.007Z,3.80
2023-08-28T08:16:29.067Z,4.50
2023-08-28T08:19:01.955Z,4.20
2023-08-28T08:21:33.975Z,4.30
2023-08-28T08:24:06.878Z,4.10
2023-08-28T08:26:38.954Z,3.70
2023-08-28T08:29:10.924Z,3.40
2023-08-28T08:31:42.834Z,3.30
2023-08-28T08:34:15.198Z,3.60
2023-08-28T08:36:47.363Z,4.00
2023-08-28T08:39:19.956Z,3.40
2023-08-28T08:44:22.332Z,4.00
2023-08-28T08:46:55.525Z,4.30
2023-08-28T08:49:32.892Z,4.20
2023-08-28T08:52:10.027Z,4.20
2023-08-28T08:54:44.120Z,4.20
2023-08-28T08:57:24.765Z,4.00
2023-08-28T08:59:57.116Z,3.80
2023-08-28T09:02:31.591Z,3.20
2023-08-28T09:05:07.938Z,3.50
2023-08-28T09:08:09.467Z,4.10
2023-08-28T09:10:41.365Z,3.00
2023-08-28T09:13:13.330Z,3.40
2023-08-28T09:15:45.258Z,2.80
2023-08-28T09:18:17.287Z,3.30
2023-08-28T09:21:09.531Z,2.80
2023-08-28T09:23:47.210Z,2.90
2023-08-28T09:26:22.174Z,2.90
2023-08-28T09:29:03.244Z,3.10
2023-08-28T09:31:37.382Z,2.90
2023-08-28T09:34:10.336Z,2.90
2023-08-28T09:36:45.626Z,3.00
2023-08-28T09:39:17.986Z,3.10
2023-08-28T09:41:51.795Z,3.50
2023-08-28T09:44:27.377Z,3.00
2023-08-28T09:46:59.645Z,3.40
2023-08-28T09:49:32.185Z,2.60
2023-08-28T09:52:04.458Z,3.00
2023-08-28T09:54:36.831Z,2.60
2023-08-28T09:57:19.098Z,2.90
2023-08-28T09:59:51.077Z,3.00
2023-08-28T10:02:25.260Z,3.00
2023-08-28T10:05:00.470Z,3.00
2023-08-28T10:07:34.488Z,3.30
2023-08-28T10:10:13.578Z,3.50
2023-08-28T10:13:11.483Z,2.70
2023-08-28T10:15:47.501Z,3.20
2023-08-28T10:18:26.757Z,3.10
2023-08-28T10:20:59.273Z,3.30
2023-08-28T10:23:32.663Z,3.10
2023-08-28T10:26:06.025Z,3.20
2023-08-28T10:28:40.319Z,3.70
2023-08-28T10:31:13.066Z,3.90
2023-08-28T10:33:49.026Z,4.00
2023-08-28T10:36:47.170Z,4.20
2023-08-28T10:39:14.713Z,4.20
2023-08-28T10:41:48.382Z,4.30
2023-08-28T10:44:20.671Z,4.30
2023-08-28T10:46:53.514Z,4.50
2023-08-28T10:49:25.563Z,4.30
2023-08-28T10:52:07.023Z,4.20
2023-08-28T10:54:40.354Z,4.60
2023-08-28T10:57:25.886Z,3.20
2023-08-28T11:00:02.029Z,4.00
2023-08-28T11:03:07.345Z,3.30
2023-08-28T11:05:42.238Z,3.20
2023-08-28T11:08:16.512Z,2.60
2023-08-28T11:11:14.840Z,2.70
2023-08-28T11:14:03.965Z,2.50
2023-08-28T11:16:41.963Z,3.00
2023-08-28T11:19:14.263Z,3.30
2023-08-28T11:21:46.712Z,3.60
2023-08-28T11:24:27.566Z,2.70
2023-08-28T11:26:59.540Z,2.80
2023-08-28T11:29:33.306Z,2.30
2023-08-28T11:32:07.419Z,2.70
2023-08-28T11:34:40.632Z,2.50
2023-08-28T11:37:13.893Z,2.90
2023-08-28T11:39:46.028Z,3.60
2023-08-28T11:42:18.257Z,3.10
2023-08-28T11:44:51.392Z,4.10
2023-08-28T11:47:27.947Z,3.30
2023-08-28T11:50:01.260Z,3.00
2023-08-28T11:52:33.751Z,3.10
2023-08-28T11:58:06.972Z,3.00
2023-08-28T12:00:39.294Z,3.00
2023-08-28T12:03:20.480Z,2.90
2023-08-28T12:06:01.452Z,2.90
2023-08-28T12:08:34.703Z,3.00
2023-08-28T12:11:08.260Z,3.60
2023-08-28T12:13:41.564Z,3.20
2023-08-28T12:16:18.981Z,3.40
2023-08-28T12:18:52.765Z,3.30
2023-08-28T12:21:37.624Z,3.40
2023-08-28T12:24:13.607Z,3.30
2023-08-28T12:26:47.936Z,3.30
2023-08-28T12:29:20.615Z,3.50
2023-08-28T12:34:28.994Z,3.70
2023-08-28T12:37:09.017Z,3.10
2023-08-28T12:39:48.232Z,3.00
2023-08-28T12:42:22.627Z,3.90
2023-08-28T12:44:54.929Z,3.50
2023-08-28T12:47:26.857Z,3.70
2023-08-28T12:49:58.854Z,3.60
2023-08-28T12:52:31.363Z,3.00
2023-08-28T12:55:06.022Z,3.50
2023-08-28T12:58:02.635Z,3.30
2023-08-28T13:00:34.964Z,3.40
2023-08-28T13:03:08.191Z,3.20
2023-08-28T13:05:41.264Z,3.60
2023-08-28T13:08:13.943Z,4.00
2023-08-28T13:10:48.842Z,3.80
2023-08-28T13:13:25.102Z,3.60
2023-08-28T13:15:58.765Z,4.30
2023-08-28T13:18:31.161Z,3.90
2023-08-28T13:21:04.580Z,3.50
2023-08-28T13:23:37.316Z,3.50
2023-08-28T13:26:09.411Z,4.00
2023-08-28T13:28:44.137Z,3.80
2023-08-28T13:31:16.641Z,4.40
2023-08-28T13:36:20.259Z,4.20
2023-08-28T13:41:24.131Z,4.70
2023-08-28T13:43:56.008Z,4.90
2023-08-28T13:46:27.869Z,4.50
2023-08-28T13:49:01.400Z,3.90
2023-08-28T13:51:33.233Z,4.70
2023-08-28T13:54:05.446Z,4.90
2023-08-28T13:56:37.335Z,4.50
2023-08-28T13:59:09.206Z,5.00
2023-08-28T14:01:42.221Z,4.10
2023-08-28T14:04:15.163Z,4.60
2023-08-28T14:06:47.308Z,4.40
2023-08-28T14:09:19.174Z,4.80
2023-08-28T14:11:51.084Z,5.00
2023-08-28T14:14:23.046Z,5.00
2023-08-28T14:16:55.233Z,5.20
2023-08-28T14:19:27.071Z,4.90
2023-08-28T14:21:59.119Z,4.80
2023-08-28T14:24:31.702Z,4.80
2023-08-28T14:27:04.092Z,5.50
2023-08-28T14:29:35.943Z,5.70
2023-08-28T14:32:09.353Z,6.00
2023-08-28T14:34:41.155Z,4.40
2023-08-28T14:37:13.118Z,5.30
2023-08-28T14:39:45.214Z,5.70
2023-08-28T14:42:17.130Z,5.50
2023-08-28T14:44:49.108Z,5.40
2023-08-28T14:47:20.932Z,3.20
2023-08-28T14:49:52.856Z,5.70
2023-08-28T14:52:24.773Z,5.10
2023-08-28T14:54:56.899Z,5.40
2023-08-28T14:57:28.836Z,5.20
2023-08-28T15:00:00.810Z,5.10
2023-08-28T15:02:33.000Z,5.60
2023-08-28T15:05:05.366Z,5.10
2023-08-28T15:10:33.047Z,5.30
2023-08-28T15:13:05.321Z,5.20
2023-08-28T15:15:40.747Z,5.50
2023-08-28T15:18:12.707Z,5.40
2023-08-28T15:20:45.752Z,5.40
2023-08-28T15:23:18.273Z,6.30
2023-08-28T15:25:50.443Z,6.20
2023-08-28T15:28:22.423Z,6.00
2023-08-28T15:30:54.983Z,5.80
2023-08-28T15:33:26.959Z,6.50
2023-08-28T15:35:58.806Z,6.70
2023-08-28T15:38:30.715Z,7.40
2023-08-28T15:41:04.471Z,7.30
2023-08-28T15:43:36.273Z,7.40
2023-08-28T15:46:08.147Z,6.60
2023-08-28T15:48:39.952Z,6.90
2023-08-28T15:51:11.926Z,7.10
2023-08-28T15:53:43.856Z,8.40
2023-08-28T15:56:16.027Z,8.50
2023-08-28T15:58:57.663Z,8.10
2023-08-28T16:01:40.604Z,8.50
2023-08-28T16:04:12.885Z,8.30
2023-08-28T16:06:44.687Z,7.90
2023-08-28T16:09:17.135Z,8.20
2023-08-28T16:11:53.143Z,7.80
2023-08-28T16:14:25.410Z,7.60
2023-08-28T16:16:57.568Z,7.60
2023-08-28T16:19:32.160Z,8.30
2023-08-28T16:22:04.017Z,8.30
2023-08-28T16:24:35.936Z,8.10
2023-08-28T16:27:08.244Z,7.90
2023-08-28T16:29:40.098Z,7.50
2023-08-28T16:32:12.002Z,4.70
2023-08-28T16:34:44.057Z,4.50
2023-08-28T16:37:15.939Z,4.50
2023-08-28T16:39:47.719Z,2.40
2023-08-28T16:42:20.441Z,3.90
2023-08-28T16:44:52.765Z,4.30
2023-08-28T16:49:55.395Z,3.50
2023-08-28T16:52:27.637Z,2.70
2023-08-28T16:54:59.704Z,2.60
2023-08-28T16:57:31.545Z,2.20
2023-08-28T17:00:03.540Z,2.70
2023-08-28T17:02:35.644Z,2.70
2023-08-28T17:05:33.703Z,2.40
2023-08-28T17:08:06.245Z,2.80
2023-08-28T17:13:08.680Z,2.20
2023-08-28T17:15:41.350Z,2.20
2023-08-28T17:18:13.489Z,1.90
2023-08-28T17:20:45.572Z,1.80
2023-08-28T17:23:18.145Z,2.40
2023-08-28T17:28:21.338Z,2.40
2023-08-28T17:30:53.577Z,2.60
2023-08-28T17:33:25.631Z,2.30
2023-08-28T17:35:57.887Z,2.40
2023-08-28T17:38:30.131Z,2.50
2023-08-28T17:41:02.039Z,2.20
2023-08-28T17:43:34.371Z,2.90
2023-08-28T17:46:06.644Z,2.70
2023-08-28T17:48:38.582Z,2.60
2023-08-28T17:51:11.443Z,3.10
2023-08-28T17:53:43.419Z,2.60
2023-08-28T17:56:15.556Z,4.20
2023-08-28T17:58:48.222Z,3.30
2023-08-28T18:03:53.104Z,3.80
2023-08-28T18:06:25.191Z,3.30
2023-08-28T18:08:57.597Z,2.60
2023-08-28T18:11:29.825Z,3.30
2023-08-28T18:14:01.823Z,3.00
2023-08-28T18:16:33.737Z,3.10
2023-08-28T18:19:05.765Z,2.90
2023-08-28T18:21:40.441Z,3.50
2023-08-28T18:24:16.561Z,3.20
2023-08-28T18:27:00.766Z,3.70
2023-08-28T18:29:32.926Z,4.00
2023-08-28T18:32:06.615Z,3.60
2023-08-28T18:34:38.685Z,4.00
2023-08-28T18:37:10.602Z,3.60
2023-08-28T18:39:43.053Z,3.90
2023-08-28T18:42:15.442Z,4.00
2023-08-28T18:44:47.299Z,4.50
2023-08-28T18:47:19.240Z,4.60
2023-08-28T18:49:51.276Z,4.60
2023-08-28T18:52:23.226Z,5.40
2023-08-28T18:54:55.189Z,5.70
2023-08-28T18:57:27.392Z,6.00
2023-08-28T18:59:59.316Z,6.30
2023-08-28T19:02:31.756Z,6.50
2023-08-28T19:05:04.100Z,7.20
2023-08-28T19:10:31.890Z,7.90
2023-08-28T19:13:04.559Z,8.90
2023-08-28T19:18:09.099Z,8.80
2023-08-28T19:20:55.185Z,9.20
2023-08-28T19:23:33.839Z,10.20
2023-08-28T19:26:05.783Z,10.90
2023-08-28T19:28:38.285Z,10.00
2023-08-28T19:31:10.719Z,9.80
2023-08-28T19:33:43.077Z,10.50
2023-08-28T19:36:15.133Z,10.80
2023-08-28T19:38:47.474Z,10.60
2023-08-28T19:41:19.699Z,9.90
2023-08-28T19:43:52.292Z,10.40
2023-08-28T19:46:25.336Z,10.50
2023-08-28T19:48:57.394Z,10.30
2023-08-28T19:51:29.847Z,9.60
2023-08-28T19:54:01.766Z,10.20
2023-08-28T19:56:34.075Z,10.30
2023-08-28T19:59:06.238Z,9.70
2023-08-28T20:01:38.504Z,8.40
2023-08-28T20:04:10.548Z,7.80
2023-08-28T20:06:43.253Z,7.80
2023-08-28T20:09:16.236Z,6.40
2023-08-28T20:11:48.432Z,6.50
2023-08-28T20:14:20.670Z,7.70
2023-08-28T20:16:52.790Z,6.50
2023-08-28T20:19:26.252Z,7.90
2023-08-28T20:21:58.387Z,7.70
2023-08-28T20:24:32.607Z,8.40
2023-08-28T20:27:05.535Z,9.20
2023-08-28T20:29:39.141Z,9.70
2023-08-28T20:32:15.226Z,9.80
2023-08-28T20:34:47.181Z,10.30
2023-08-28T20:37:19.100Z,8.60
2023-08-28T20:39:51.290Z,11.50
2023-08-28T20:42:23.483Z,10.10
2023-08-28T20:44:58.371Z,10.30
2023-08-28T20:50:33.463Z,10.70
2023-08-28T20:53:05.682Z,10.70
2023-08-28T20:55:37.480Z,11.00
2023-08-28T20:58:10.062Z,10.20
2023-08-28T21:00:41.954Z,10.10
2023-08-28T21:03:13.826Z,9.70
2023-08-28T21:05:46.031Z,10.30
2023-08-28T21:08:17.963Z,10.40
2023-08-28T21:10:49.890Z,10.80
2023-08-28T21:13:21.759Z,10.70
2023-08-28T21:15:57.736Z,10.80
2023-08-28T21:18:29.900Z,10.90
2023-08-28T21:21:04.299Z,11.50
2023-08-28T21:23:36.641Z,11.30
2023-08-28T21:26:08.745Z,12.00
2023-08-28T21:28:40.792Z,7.90
2023-08-28T21:31:12.707Z,10.20
2023-08-28T21:33:44.579Z,11.20
2023-08-28T21:36:16.481Z,9.70
2023-08-28T21:38:48.346Z,9.10
2023-08-28T21:41:20.287Z,7.10
2023-08-28T21:43:52.117Z,10.40
2023-08-28T21:46:24.224Z,9.70
2023-08-28T21:48:56.200Z,10.00
2023-08-28T21:51:47.014Z,9.20
2023-08-28T21:54:37.801Z,8.40
2023-08-28T21:57:28.594Z,8.60
2023-08-28T22:00:44.695Z,8.50
2023-08-28T22:03:35.327Z,8.50
2023-08-28T22:06:26.539Z,7.80
2023-08-28T22:08:58.424Z,7.80
2023-08-28T22:11:46.660Z,8.30
2023-08-28T22:14:22.754Z,6.70
2023-08-28T22:16:54.670Z,7.70
2023-08-28T22:19:26.486Z,6.90
2023-08-28T22:21:58.518Z,7.50
2023-08-28T22:24:30.506Z,6.60
2023-08-28T22:27:02.988Z,6.90
2023-08-28T22:32:08.224Z,7.20
2023-08-28T22:34:40.156Z,7.50
2023-08-28T22:37:12.028Z,7.30
2023-08-28T22:39:43.917Z,7.00
2023-08-28T22:42:15.838Z,6.70
2023-08-28T22:44:51.694Z,7.30
2023-08-28T22:47:25.083Z,7.60
2023-08-28T22:49:57.170Z,7.70
2023-08-28T22:52:29.140Z,7.70
2023-08-28T22:55:00.972Z,7.70
2023-08-28T22:57:35.063Z,8.10
2023-08-28T23:00:12.748Z,8.00
2023-08-28T23:03:08.484Z,7.80
2023-08-28T23:05:47.993Z,8.30
2023-08-28T23:08:20.001Z,7.80
2023-08-28T23:10:51.943Z,8.50
2023-08-28T23:13:23.871Z,7.50
2023-08-28T23:15:55.863Z,7.50
2023-08-28T23:18:28.438Z,7.10
2023-08-28T23:21:00.707Z,7.30
2023-08-28T23:23:32.941Z,7.00
2023-08-28T23:26:04.959Z,7.40
2023-08-28T23:28:36.765Z,7.30
2023-08-28T23:31:09.040Z,6.50
2023-08-28T23:33:41.157Z,6.20
2023-08-28T23:36:13.586Z,5.10
2023-08-28T23:38:45.446Z,5.80
2023-08-28T23:41:17.360Z,5.10
2023-08-28T23:43:49.431Z,4.90
2023-08-28T23:46:21.328Z,5.20
2023-08-28T23:48:53.934Z,5.30
2023-08-28T23:53:56.297Z,4.70
2023-08-28T23:56:28.243Z,5.20
2023-08-28T23:59:00.115Z,4.60
